sensor_id;sensor_type;location;lat;lon;timestamp;P1;durP1;ratioP1;P2;durP2;ratioP2
51792;SDS011;37850;53.178;6.376;2022-12-20T00:01:12;9.60;;;4.72;;
51792;SDS011;37850;53.178;6.376;2022-12-20T00:03:49;11.20;;;4.88;;
51792;SDS011;37850;53.178;6.376;2022-12-20T00:06:16;9.48;;;4.57;;
51792;SDS011;37850;53.178;6.376;2022-12-20T00:08:42;9.90;;;5.07;;
51792;SDS011;37850;53.178;6.376;2022-12-20T00:11:09;9.05;;;4.80;;
51792;SDS011;37850;53.178;6.376;2022-12-20T00:13:36;9.93;;;4.40;;
51792;SDS011;37850;53.178;6.376;2022-12-20T00:16:12;9.32;;;4.30;;
51792;SDS011;37850;53.178;6.376;2022-12-20T00:18:40;9.10;;;4.05;;
51792;SDS011;37850;53.178;6.376;2022-12-20T00:21:07;9.38;;;4.43;;
51792;SDS011;37850;53.178;6.376;2022-12-20T00:23:35;9.90;;;4.05;;
51792;SDS011;37850;53.178;6.376;2022-12-20T00:26:06;10.70;;;3.83;;
51792;SDS011;37850;53.178;6.376;2022-12-20T00:31:00;9.90;;;4.00;;
51792;SDS011;37850;53.178;6.376;2022-12-20T00:33:26;8.15;;;3.80;;
51792;SDS011;37850;53.178;6.376;2022-12-20T00:35:53;9.40;;;4.00;;
51792;SDS011;37850;53.178;6.376;2022-12-20T00:38:20;12.63;;;4.65;;
51792;SDS011;37850;53.178;6.376;2022-12-20T00:40:46;9.00;;;3.88;;
51792;SDS011;37850;53.178;6.376;2022-12-20T00:43:12;8.98;;;4.05;;
51792;SDS011;37850;53.178;6.376;2022-12-20T00:45:38;11.15;;;4.70;;
51792;SDS011;37850;53.178;6.376;2022-12-20T00:48:04;7.95;;;4.38;;
51792;SDS011;37850;53.178;6.376;2022-12-20T00:50:30;11.25;;;4.70;;
51792;SDS011;37850;53.178;6.376;2022-12-20T00:52:55;10.05;;;4.47;;
51792;SDS011;37850;53.178;6.376;2022-12-20T00:55:21;10.07;;;4.00;;
51792;SDS011;37850;53.178;6.376;2022-12-20T00:57:47;10.52;;;4.68;;
51792;SDS011;37850;53.178;6.376;2022-12-20T01:00:13;10.57;;;3.65;;
51792;SDS011;37850;53.178;6.376;2022-12-20T01:02:39;8.93;;;4.18;;
51792;SDS011;37850;53.178;6.376;2022-12-20T01:05:08;9.77;;;4.13;;
51792;SDS011;37850;53.178;6.376;2022-12-20T01:07:34;10.65;;;4.20;;
51792;SDS011;37850;53.178;6.376;2022-12-20T01:09:59;9.43;;;3.60;;
51792;SDS011;37850;53.178;6.376;2022-12-20T01:12:25;10.00;;;3.90;;
51792;SDS011;37850;53.178;6.376;2022-12-20T01:14:51;9.55;;;3.95;;
51792;SDS011;37850;53.178;6.376;2022-12-20T01:17:17;9.38;;;3.88;;
51792;SDS011;37850;53.178;6.376;2022-12-20T01:19:42;9.95;;;3.80;;
51792;SDS011;37850;53.178;6.376;2022-12-20T01:22:08;8.18;;;4.18;;
51792;SDS011;37850;53.178;6.376;2022-12-20T01:24:34;9.40;;;3.78;;
51792;SDS011;37850;53.178;6.376;2022-12-20T01:26:59;8.18;;;3.78;;
51792;SDS011;37850;53.178;6.376;2022-12-20T01:29:25;7.43;;;3.58;;
51792;SDS011;37850;53.178;6.376;2022-12-20T01:31:51;8.18;;;3.42;;
51792;SDS011;37850;53.178;6.376;2022-12-20T01:34:17;10.80;;;3.58;;
51792;SDS011;37850;53.178;6.376;2022-12-20T01:36:44;7.78;;;3.05;;
51792;SDS011;37850;53.178;6.376;2022-12-20T01:39:10;9.02;;;3.80;;
51792;SDS011;37850;53.178;6.376;2022-12-20T01:41:39;8.10;;;3.30;;
51792;SDS011;37850;53.178;6.376;2022-12-20T01:44:53;8.77;;;3.28;;
51792;SDS011;37850;53.178;6.376;2022-12-20T01:46:52;7.93;;;3.72;;
51792;SDS011;37850;53.178;6.376;2022-12-20T01:49:29;7.57;;;3.53;;
51792;SDS011;37850;53.178;6.376;2022-12-20T01:52:12;8.23;;;3.40;;
51792;SDS011;37850;53.178;6.376;2022-12-20T01:57:11;10.68;;;3.47;;
51792;SDS011;37850;53.178;6.376;2022-12-20T01:59:41;6.97;;;3.10;;
51792;SDS011;37850;53.178;6.376;2022-12-20T02:02:10;6.72;;;3.20;;
51792;SDS011;37850;53.178;6.376;2022-12-20T02:04:37;7.35;;;3.58;;
51792;SDS011;37850;53.178;6.376;2022-12-20T02:07:03;8.38;;;3.45;;
51792;SDS011;37850;53.178;6.376;2022-12-20T02:09:32;9.77;;;3.65;;
51792;SDS011;37850;53.178;6.376;2022-12-20T02:12:04;10.38;;;3.30;;
51792;SDS011;37850;53.178;6.376;2022-12-20T02:31:42;7.30;;;3.25;;
51792;SDS011;37850;53.178;6.376;2022-12-20T02:36:39;11.05;;;4.40;;
51792;SDS011;37850;53.178;6.376;2022-12-20T02:39:04;8.27;;;3.20;;
51792;SDS011;37850;53.178;6.376;2022-12-20T02:41:32;8.60;;;3.45;;
51792;SDS011;37850;53.178;6.376;2022-12-20T02:44:03;6.90;;;3.53;;
51792;SDS011;37850;53.178;6.376;2022-12-20T02:46:53;9.15;;;3.63;;
51792;SDS011;37850;53.178;6.376;2022-12-20T02:49:23;8.23;;;3.30;;
51792;SDS011;37850;53.178;6.376;2022-12-20T02:51:53;9.25;;;3.50;;
51792;SDS011;37850;53.178;6.376;2022-12-20T02:54:20;7.22;;;3.38;;
51792;SDS011;37850;53.178;6.376;2022-12-20T02:59:25;7.70;;;3.90;;
51792;SDS011;37850;53.178;6.376;2022-12-20T03:01:54;8.00;;;3.47;;
51792;SDS011;37850;53.178;6.376;2022-12-20T03:04:22;8.50;;;3.53;;
51792;SDS011;37850;53.178;6.376;2022-12-20T03:09:26;7.70;;;4.30;;
51792;SDS011;37850;53.178;6.376;2022-12-20T03:11:54;8.88;;;3.65;;
51792;SDS011;37850;53.178;6.376;2022-12-20T03:14:20;9.88;;;4.00;;
51792;SDS011;37850;53.178;6.376;2022-12-20T03:16:46;9.10;;;3.55;;
51792;SDS011;37850;53.178;6.376;2022-12-20T03:19:13;11.57;;;4.50;;
51792;SDS011;37850;53.178;6.376;2022-12-20T03:21:38;8.48;;;4.10;;
51792;SDS011;37850;53.178;6.376;2022-12-20T03:24:04;7.47;;;3.80;;
51792;SDS011;37850;53.178;6.376;2022-12-20T03:26:30;6.97;;;3.90;;
51792;SDS011;37850;53.178;6.376;2022-12-20T03:28:56;8.50;;;3.72;;
51792;SDS011;37850;53.178;6.376;2022-12-20T03:31:22;12.15;;;4.00;;
51792;SDS011;37850;53.178;6.376;2022-12-20T03:33:47;7.78;;;3.95;;
51792;SDS011;37850;53.178;6.376;2022-12-20T03:36:13;9.32;;;4.32;;
51792;SDS011;37850;53.178;6.376;2022-12-20T03:38:39;8.43;;;3.80;;
51792;SDS011;37850;53.178;6.376;2022-12-20T03:41:05;9.52;;;4.03;;
51792;SDS011;37850;53.178;6.376;2022-12-20T03:43:31;8.43;;;3.58;;
51792;SDS011;37850;53.178;6.376;2022-12-20T03:45:57;9.63;;;4.00;;
51792;SDS011;37850;53.178;6.376;2022-12-20T03:48:23;7.55;;;3.63;;
51792;SDS011;37850;53.178;6.376;2022-12-20T03:50:48;6.93;;;3.58;;
51792;SDS011;37850;53.178;6.376;2022-12-20T03:53:14;9.15;;;4.18;;
51792;SDS011;37850;53.178;6.376;2022-12-20T03:55:40;10.60;;;3.70;;
51792;SDS011;37850;53.178;6.376;2022-12-20T03:58:06;8.20;;;4.22;;
51792;SDS011;37850;53.178;6.376;2022-12-20T04:00:31;8.55;;;4.28;;
51792;SDS011;37850;53.178;6.376;2022-12-20T04:02:57;9.75;;;3.97;;
51792;SDS011;37850;53.178;6.376;2022-12-20T04:05:23;11.18;;;4.60;;
51792;SDS011;37850;53.178;6.376;2022-12-20T04:07:49;9.88;;;4.25;;
51792;SDS011;37850;53.178;6.376;2022-12-20T04:10:14;8.48;;;3.65;;
51792;SDS011;37850;53.178;6.376;2022-12-20T04:12:40;7.50;;;3.65;;
51792;SDS011;37850;53.178;6.376;2022-12-20T04:15:06;7.40;;;3.40;;
51792;SDS011;37850;53.178;6.376;2022-12-20T04:17:32;10.73;;;4.32;;
51792;SDS011;37850;53.178;6.376;2022-12-20T04:19:58;8.40;;;4.05;;
51792;SDS011;37850;53.178;6.376;2022-12-20T04:22:43;7.70;;;4.30;;
51792;SDS011;37850;53.178;6.376;2022-12-20T04:25:12;11.75;;;4.55;;
51792;SDS011;37850;53.178;6.376;2022-12-20T04:27:39;9.30;;;3.95;;
51792;SDS011;37850;53.178;6.376;2022-12-20T04:30:05;9.68;;;4.20;;
51792;SDS011;37850;53.178;6.376;2022-12-20T04:32:32;8.30;;;4.38;;
51792;SDS011;37850;53.178;6.376;2022-12-20T04:34:57;7.10;;;4.00;;
51792;SDS011;37850;53.178;6.376;2022-12-20T04:37:23;8.63;;;4.18;;
51792;SDS011;37850;53.178;6.376;2022-12-20T04:39:49;10.57;;;4.05;;
51792;SDS011;37850;53.178;6.376;2022-12-20T04:42:14;9.80;;;4.22;;
51792;SDS011;37850;53.178;6.376;2022-12-20T04:44:40;11.15;;;4.47;;
51792;SDS011;37850;53.178;6.376;2022-12-20T04:47:06;7.72;;;3.90;;
51792;SDS011;37850;53.178;6.376;2022-12-20T04:49:32;9.80;;;4.22;;
51792;SDS011;37850;53.178;6.376;2022-12-20T04:51:57;9.07;;;4.40;;
51792;SDS011;37850;53.178;6.376;2022-12-20T04:54:43;9.50;;;4.32;;
51792;SDS011;37850;53.178;6.376;2022-12-20T04:57:10;9.10;;;4.40;;
51792;SDS011;37850;53.178;6.376;2022-12-20T04:59:36;8.75;;;4.35;;
51792;SDS011;37850;53.178;6.376;2022-12-20T05:02:01;7.45;;;4.20;;
51792;SDS011;37850;53.178;6.376;2022-12-20T05:04:27;8.55;;;4.20;;
51792;SDS011;37850;53.178;6.376;2022-12-20T05:06:53;9.90;;;4.65;;
51792;SDS011;37850;53.178;6.376;2022-12-20T05:09:19;7.53;;;4.43;;
51792;SDS011;37850;53.178;6.376;2022-12-20T05:11:44;10.18;;;4.10;;
51792;SDS011;37850;53.178;6.376;2022-12-20T05:14:10;8.73;;;4.13;;
51792;SDS011;37850;53.178;6.376;2022-12-20T05:16:36;10.20;;;3.53;;
51792;SDS011;37850;53.178;6.376;2022-12-20T05:19:02;9.52;;;3.72;;
51792;SDS011;37850;53.178;6.376;2022-12-20T05:21:28;11.80;;;5.10;;
51792;SDS011;37850;53.178;6.376;2022-12-20T05:24:13;8.50;;;4.78;;
51792;SDS011;37850;53.178;6.376;2022-12-20T05:26:57;11.00;;;4.88;;
51792;SDS011;37850;53.178;6.376;2022-12-20T05:29:23;11.48;;;4.45;;
51792;SDS011;37850;53.178;6.376;2022-12-20T05:31:49;9.68;;;3.92;;
51792;SDS011;37850;53.178;6.376;2022-12-20T05:34:15;8.52;;;4.45;;
51792;SDS011;37850;53.178;6.376;2022-12-20T05:36:41;9.95;;;4.15;;
51792;SDS011;37850;53.178;6.376;2022-12-20T05:39:07;8.60;;;4.35;;
51792;SDS011;37850;53.178;6.376;2022-12-20T05:41:33;9.95;;;4.20;;
51792;SDS011;37850;53.178;6.376;2022-12-20T05:43:59;9.55;;;4.18;;
51792;SDS011;37850;53.178;6.376;2022-12-20T05:46:25;10.77;;;4.35;;
51792;SDS011;37850;53.178;6.376;2022-12-20T05:48:50;8.65;;;3.95;;
51792;SDS011;37850;53.178;6.376;2022-12-20T05:51:17;9.75;;;3.95;;
51792;SDS011;37850;53.178;6.376;2022-12-20T05:53:43;10.57;;;3.90;;
51792;SDS011;37850;53.178;6.376;2022-12-20T05:56:08;8.90;;;3.72;;
51792;SDS011;37850;53.178;6.376;2022-12-20T05:58:34;8.55;;;3.45;;
51792;SDS011;37850;53.178;6.376;2022-12-20T06:01:05;9.05;;;4.05;;
51792;SDS011;37850;53.178;6.376;2022-12-20T06:03:32;9.68;;;4.78;;
51792;SDS011;37850;53.178;6.376;2022-12-20T06:05:58;9.50;;;3.67;;
51792;SDS011;37850;53.178;6.376;2022-12-20T06:08:24;8.18;;;3.80;;
51792;SDS011;37850;53.178;6.376;2022-12-20T06:10:49;10.38;;;4.03;;
51792;SDS011;37850;53.178;6.376;2022-12-20T06:13:15;7.90;;;3.83;;
51792;SDS011;37850;53.178;6.376;2022-12-20T06:15:41;8.35;;;3.88;;
51792;SDS011;37850;53.178;6.376;2022-12-20T06:18:07;10.05;;;4.05;;
51792;SDS011;37850;53.178;6.376;2022-12-20T06:20:33;8.80;;;3.70;;
51792;SDS011;37850;53.178;6.376;2022-12-20T06:23:00;7.38;;;3.47;;
51792;SDS011;37850;53.178;6.376;2022-12-20T06:25:26;7.93;;;3.53;;
51792;SDS011;37850;53.178;6.376;2022-12-20T06:27:52;8.00;;;3.75;;
51792;SDS011;37850;53.178;6.376;2022-12-20T06:30:18;12.63;;;3.85;;
51792;SDS011;37850;53.178;6.376;2022-12-20T06:32:45;8.18;;;4.03;;
51792;SDS011;37850;53.178;6.376;2022-12-20T06:35:11;9.63;;;3.72;;
51792;SDS011;37850;53.178;6.376;2022-12-20T06:37:36;6.57;;;3.15;;
51792;SDS011;37850;53.178;6.376;2022-12-20T06:40:05;7.93;;;3.65;;
51792;SDS011;37850;53.178;6.376;2022-12-20T06:42:36;8.70;;;4.00;;
51792;SDS011;37850;53.178;6.376;2022-12-20T06:45:03;8.98;;;3.50;;
51792;SDS011;37850;53.178;6.376;2022-12-20T06:47:33;10.90;;;3.50;;
51792;SDS011;37850;53.178;6.376;2022-12-20T06:49:59;8.43;;;3.60;;
51792;SDS011;37850;53.178;6.376;2022-12-20T06:52:25;7.00;;;3.40;;
51792;SDS011;37850;53.178;6.376;2022-12-20T06:54:51;6.93;;;3.38;;
51792;SDS011;37850;53.178;6.376;2022-12-20T06:57:16;7.10;;;3.58;;
51792;SDS011;37850;53.178;6.376;2022-12-20T06:59:43;10.23;;;3.53;;
51792;SDS011;37850;53.178;6.376;2022-12-20T07:02:10;7.63;;;3.75;;
51792;SDS011;37850;53.178;6.376;2022-12-20T07:04:36;8.52;;;4.13;;
51792;SDS011;37850;53.178;6.376;2022-12-20T07:07:02;9.65;;;4.20;;
51792;SDS011;37850;53.178;6.376;2022-12-20T07:09:28;8.02;;;4.18;;
51792;SDS011;37850;53.178;6.376;2022-12-20T07:11:55;7.90;;;4.20;;
51792;SDS011;37850;53.178;6.376;2022-12-20T07:14:21;7.80;;;4.50;;
51792;SDS011;37850;53.178;6.376;2022-12-20T07:16:47;7.45;;;4.40;;
51792;SDS011;37850;53.178;6.376;2022-12-20T07:19:14;9.10;;;4.40;;
51792;SDS011;37850;53.178;6.376;2022-12-20T07:21:41;7.65;;;4.63;;
51792;SDS011;37850;53.178;6.376;2022-12-20T07:24:07;10.30;;;4.88;;
51792;SDS011;37850;53.178;6.376;2022-12-20T07:26:33;10.20;;;5.10;;
51792;SDS011;37850;53.178;6.376;2022-12-20T07:28:59;8.93;;;5.13;;
51792;SDS011;37850;53.178;6.376;2022-12-20T07:31:26;8.63;;;5.38;;
51792;SDS011;37850;53.178;6.376;2022-12-20T07:33:51;10.15;;;5.05;;
51792;SDS011;37850;53.178;6.376;2022-12-20T07:36:17;9.75;;;6.28;;
51792;SDS011;37850;53.178;6.376;2022-12-20T07:38:43;9.70;;;5.75;;
51792;SDS011;37850;53.178;6.376;2022-12-20T07:41:12;11.15;;;5.38;;
51792;SDS011;37850;53.178;6.376;2022-12-20T07:43:41;10.32;;;5.55;;
51792;SDS011;37850;53.178;6.376;2022-12-20T07:46:07;12.40;;;6.22;;
51792;SDS011;37850;53.178;6.376;2022-12-20T07:48:36;12.00;;;6.72;;
51792;SDS011;37850;53.178;6.376;2022-12-20T07:51:04;10.15;;;5.97;;
51792;SDS011;37850;53.178;6.376;2022-12-20T07:53:33;9.93;;;6.57;;
51792;SDS011;37850;53.178;6.376;2022-12-20T07:56:02;12.15;;;6.35;;
51792;SDS011;37850;53.178;6.376;2022-12-20T07:58:31;11.45;;;6.82;;
51792;SDS011;37850;53.178;6.376;2022-12-20T08:00:59;10.73;;;6.35;;
51792;SDS011;37850;53.178;6.376;2022-12-20T08:03:27;11.38;;;6.82;;
51792;SDS011;37850;53.178;6.376;2022-12-20T08:05:59;11.10;;;6.55;;
51792;SDS011;37850;53.178;6.376;2022-12-20T08:08:28;9.68;;;6.28;;
51792;SDS011;37850;53.178;6.376;2022-12-20T08:10:56;13.65;;;6.38;;
51792;SDS011;37850;53.178;6.376;2022-12-20T08:13:23;11.13;;;6.97;;
51792;SDS011;37850;53.178;6.376;2022-12-20T08:15:49;9.65;;;6.50;;
51792;SDS011;37850;53.178;6.376;2022-12-20T08:18:15;9.65;;;6.53;;
51792;SDS011;37850;53.178;6.376;2022-12-20T08:20:41;10.30;;;5.97;;
51792;SDS011;37850;53.178;6.376;2022-12-20T08:23:06;11.25;;;6.05;;
51792;SDS011;37850;53.178;6.376;2022-12-20T08:25:33;8.68;;;5.32;;
51792;SDS011;37850;53.178;6.376;2022-12-20T08:27:59;10.27;;;5.95;;
51792;SDS011;37850;53.178;6.376;2022-12-20T08:30:26;9.07;;;5.32;;
51792;SDS011;37850;53.178;6.376;2022-12-20T08:32:53;12.68;;;5.10;;
51792;SDS011;37850;53.178;6.376;2022-12-20T08:35:19;11.82;;;5.15;;
51792;SDS011;37850;53.178;6.376;2022-12-20T08:37:46;9.40;;;4.80;;
51792;SDS011;37850;53.178;6.376;2022-12-20T08:40:12;9.20;;;4.85;;
51792;SDS011;37850;53.178;6.376;2022-12-20T08:42:38;17.27;;;6.03;;
51792;SDS011;37850;53.178;6.376;2022-12-20T08:45:04;8.55;;;4.20;;
51792;SDS011;37850;53.178;6.376;2022-12-20T08:47:30;10.98;;;4.70;;
51792;SDS011;37850;53.178;6.376;2022-12-20T08:49:56;8.52;;;3.92;;
51792;SDS011;37850;53.178;6.376;2022-12-20T08:52:22;9.70;;;4.65;;
51792;SDS011;37850;53.178;6.376;2022-12-20T08:54:48;11.75;;;4.03;;
51792;SDS011;37850;53.178;6.376;2022-12-20T08:57:13;15.13;;;4.18;;
51792;SDS011;37850;53.178;6.376;2022-12-20T08:59:39;8.00;;;3.50;;
51792;SDS011;37850;53.178;6.376;2022-12-20T09:02:08;9.90;;;3.45;;
51792;SDS011;37850;53.178;6.376;2022-12-20T09:04:34;10.75;;;3.80;;
51792;SDS011;37850;53.178;6.376;2022-12-20T09:07:00;13.45;;;4.20;;
51792;SDS011;37850;53.178;6.376;2022-12-20T09:09:26;9.93;;;4.13;;
51792;SDS011;37850;53.178;6.376;2022-12-20T09:11:52;7.25;;;3.47;;
51792;SDS011;37850;53.178;6.376;2022-12-20T09:14:18;8.77;;;3.92;;
51792;SDS011;37850;53.178;6.376;2022-12-20T09:16:43;7.18;;;3.65;;
51792;SDS011;37850;53.178;6.376;2022-12-20T09:19:10;6.40;;;3.08;;
51792;SDS011;37850;53.178;6.376;2022-12-20T09:21:37;7.43;;;3.58;;
51792;SDS011;37850;53.178;6.376;2022-12-20T09:24:03;8.98;;;3.22;;
51792;SDS011;37850;53.178;6.376;2022-12-20T09:26:30;6.70;;;3.63;;
51792;SDS011;37850;53.178;6.376;2022-12-20T09:28:56;7.10;;;3.58;;
51792;SDS011;37850;53.178;6.376;2022-12-20T09:31:23;7.82;;;3.53;;
51792;SDS011;37850;53.178;6.376;2022-12-20T09:33:53;11.48;;;3.67;;
51792;SDS011;37850;53.178;6.376;2022-12-20T09:36:21;7.57;;;3.40;;
51792;SDS011;37850;53.178;6.376;2022-12-20T09:38:48;8.73;;;3.20;;
51792;SDS011;37850;53.178;6.376;2022-12-20T09:41:17;8.75;;;3.28;;
51792;SDS011;37850;53.178;6.376;2022-12-20T09:43:53;6.93;;;3.13;;
51792;SDS011;37850;53.178;6.376;2022-12-20T09:46:21;8.02;;;3.38;;
51792;SDS011;37850;53.178;6.376;2022-12-20T09:48:48;7.57;;;3.28;;
51792;SDS011;37850;53.178;6.376;2022-12-20T09:59:51;6.85;;;3.08;;
51792;SDS011;37850;53.178;6.376;2022-12-20T10:02:22;7.80;;;3.05;;
51792;SDS011;37850;53.178;6.376;2022-12-20T10:04:49;6.85;;;2.80;;
51792;SDS011;37850;53.178;6.376;2022-12-20T10:15:51;10.48;;;3.42;;
51792;SDS011;37850;53.178;6.376;2022-12-20T10:24:30;6.55;;;3.00;;
51792;SDS011;37850;53.178;6.376;2022-12-20T10:27:19;7.32;;;2.80;;
51792;SDS011;37850;53.178;6.376;2022-12-20T10:29:45;7.15;;;3.03;;
51792;SDS011;37850;53.178;6.376;2022-12-20T10:32:17;7.38;;;2.85;;
51792;SDS011;37850;53.178;6.376;2022-12-20T10:37:57;6.60;;;2.72;;
51792;SDS011;37850;53.178;6.376;2022-12-20T10:40:30;9.45;;;2.88;;
51792;SDS011;37850;53.178;6.376;2022-12-20T10:42:58;5.10;;;2.60;;
51792;SDS011;37850;53.178;6.376;2022-12-20T10:45:31;6.25;;;2.50;;
51792;SDS011;37850;53.178;6.376;2022-12-20T10:48:01;6.57;;;3.03;;
51792;SDS011;37850;53.178;6.376;2022-12-20T10:50:29;8.52;;;2.97;;
51792;SDS011;37850;53.178;6.376;2022-12-20T10:53:03;6.43;;;2.70;;
51792;SDS011;37850;53.178;6.376;2022-12-20T10:58:05;8.60;;;2.83;;
51792;SDS011;37850;53.178;6.376;2022-12-20T11:00:40;6.90;;;2.78;;
51792;SDS011;37850;53.178;6.376;2022-12-20T11:03:11;7.20;;;3.00;;
51792;SDS011;37850;53.178;6.376;2022-12-20T11:05:37;6.05;;;2.80;;
51792;SDS011;37850;53.178;6.376;2022-12-20T11:08:14;6.55;;;2.45;;
51792;SDS011;37850;53.178;6.376;2022-12-20T11:10:41;6.20;;;2.88;;
51792;SDS011;37850;53.178;6.376;2022-12-20T11:13:23;6.63;;;3.03;;
51792;SDS011;37850;53.178;6.376;2022-12-20T11:15:52;7.82;;;3.05;;
51792;SDS011;37850;53.178;6.376;2022-12-20T11:20:56;9.68;;;3.00;;
51792;SDS011;37850;53.178;6.376;2022-12-20T11:23:46;6.93;;;3.15;;
51792;SDS011;37850;53.178;6.376;2022-12-20T11:37:59;10.07;;;3.33;;
51792;SDS011;37850;53.178;6.376;2022-12-20T11:40:36;6.57;;;2.70;;
51792;SDS011;37850;53.178;6.376;2022-12-20T11:46:03;6.63;;;2.85;;
51792;SDS011;37850;53.178;6.376;2022-12-20T11:51:29;9.38;;;3.13;;
51792;SDS011;37850;53.178;6.376;2022-12-20T11:57:34;6.63;;;3.05;;
51792;SDS011;37850;53.178;6.376;2022-12-20T12:00:10;7.15;;;3.67;;
51792;SDS011;37850;53.178;6.376;2022-12-20T12:02:56;7.03;;;3.05;;
51792;SDS011;37850;53.178;6.376;2022-12-20T12:05:39;10.45;;;3.40;;
51792;SDS011;37850;53.178;6.376;2022-12-20T12:08:29;10.88;;;3.30;;
51792;SDS011;37850;53.178;6.376;2022-12-20T12:11:05;9.73;;;3.90;;
51792;SDS011;37850;53.178;6.376;2022-12-20T12:13:39;9.55;;;3.45;;
51792;SDS011;37850;53.178;6.376;2022-12-20T12:16:17;8.30;;;3.30;;
51792;SDS011;37850;53.178;6.376;2022-12-20T12:18:56;11.63;;;3.67;;
51792;SDS011;37850;53.178;6.376;2022-12-20T12:21:25;8.80;;;4.10;;
51792;SDS011;37850;53.178;6.376;2022-12-20T12:24:16;10.35;;;3.83;;
51792;SDS011;37850;53.178;6.376;2022-12-20T12:26:47;6.75;;;3.47;;
51792;SDS011;37850;53.178;6.376;2022-12-20T12:29:14;7.43;;;3.63;;
51792;SDS011;37850;53.178;6.376;2022-12-20T12:45:59;9.45;;;4.45;;
51792;SDS011;37850;53.178;6.376;2022-12-20T12:51:01;6.13;;;3.72;;
51792;SDS011;37850;53.178;6.376;2022-12-20T12:56:28;8.50;;;4.40;;
51792;SDS011;37850;53.178;6.376;2022-12-20T13:01:54;9.23;;;4.88;;
51792;SDS011;37850;53.178;6.376;2022-12-20T13:04:51;9.63;;;4.95;;
51792;SDS011;37850;53.178;6.376;2022-12-20T13:09:59;12.52;;;5.63;;
51792;SDS011;37850;53.178;6.376;2022-12-20T13:12:46;12.15;;;5.07;;
51792;SDS011;37850;53.178;6.376;2022-12-20T13:20:22;10.13;;;5.43;;
51792;SDS011;37850;53.178;6.376;2022-12-20T13:25:43;9.65;;;5.50;;
51792;SDS011;37850;53.178;6.376;2022-12-20T13:31:29;9.10;;;5.65;;
51792;SDS011;37850;53.178;6.376;2022-12-20T13:33:44;9.85;;;5.82;;
51792;SDS011;37850;53.178;6.376;2022-12-20T13:38:50;13.15;;;6.28;;
51792;SDS011;37850;53.178;6.376;2022-12-20T13:46:46;11.65;;;6.63;;
51792;SDS011;37850;53.178;6.376;2022-12-20T13:49:22;10.93;;;6.50;;
51792;SDS011;37850;53.178;6.376;2022-12-20T13:54:42;9.98;;;6.78;;
51792;SDS011;37850;53.178;6.376;2022-12-20T13:57:14;10.50;;;6.88;;
51792;SDS011;37850;53.178;6.376;2022-12-20T13:59:44;12.77;;;7.70;;
51792;SDS011;37850;53.178;6.376;2022-12-20T14:02:19;11.63;;;7.05;;
51792;SDS011;37850;53.178;6.376;2022-12-20T14:04:58;16.23;;;7.80;;
51792;SDS011;37850;53.178;6.376;2022-12-20T14:07:32;10.20;;;6.65;;
51792;SDS011;37850;53.178;6.376;2022-12-20T14:10:00;12.25;;;7.28;;
51792;SDS011;37850;53.178;6.376;2022-12-20T14:12:28;12.63;;;7.20;;
51792;SDS011;37850;53.178;6.376;2022-12-20T14:14:55;9.77;;;6.95;;
51792;SDS011;37850;53.178;6.376;2022-12-20T14:17:25;11.48;;;7.70;;
51792;SDS011;37850;53.178;6.376;2022-12-20T14:20:02;14.13;;;7.30;;
51792;SDS011;37850;53.178;6.376;2022-12-20T14:22:34;11.05;;;7.57;;
51792;SDS011;37850;53.178;6.376;2022-12-20T14:25:01;11.70;;;7.38;;
51792;SDS011;37850;53.178;6.376;2022-12-20T14:27:32;11.27;;;7.95;;
51792;SDS011;37850;53.178;6.376;2022-12-20T14:30:00;15.57;;;8.90;;
51792;SDS011;37850;53.178;6.376;2022-12-20T14:32:26;11.38;;;8.48;;
51792;SDS011;37850;53.178;6.376;2022-12-20T14:34:52;14.45;;;9.30;;
51792;SDS011;37850;53.178;6.376;2022-12-20T14:37:34;13.85;;;8.40;;
51792;SDS011;37850;53.178;6.376;2022-12-20T14:40:14;17.17;;;9.50;;
51792;SDS011;37850;53.178;6.376;2022-12-20T14:42:43;14.63;;;9.90;;
51792;SDS011;37850;53.178;6.376;2022-12-20T14:47:48;13.88;;;10.55;;
51792;SDS011;37850;53.178;6.376;2022-12-20T14:50:21;15.85;;;10.77;;
51792;SDS011;37850;53.178;6.376;2022-12-20T14:52:55;15.73;;;10.45;;
51792;SDS011;37850;53.178;6.376;2022-12-20T14:55:22;17.02;;;10.20;;
51792;SDS011;37850;53.178;6.376;2022-12-20T14:57:55;16.10;;;10.93;;
51792;SDS011;37850;53.178;6.376;2022-12-20T15:00:27;14.90;;;10.70;;
51792;SDS011;37850;53.178;6.376;2022-12-20T15:02:58;15.55;;;11.38;;
51792;SDS011;37850;53.178;6.376;2022-12-20T15:05:47;16.40;;;11.85;;
51792;SDS011;37850;53.178;6.376;2022-12-20T15:16:24;18.52;;;12.45;;
51792;SDS011;37850;53.178;6.376;2022-12-20T15:18:54;17.60;;;12.18;;
51792;SDS011;37850;53.178;6.376;2022-12-20T15:21:31;17.40;;;12.45;;
51792;SDS011;37850;53.178;6.376;2022-12-20T15:24:00;22.88;;;13.13;;
51792;SDS011;37850;53.178;6.376;2022-12-20T15:26:33;15.40;;;12.73;;
51792;SDS011;37850;53.178;6.376;2022-12-20T15:29:00;17.88;;;13.30;;
51792;SDS011;37850;53.178;6.376;2022-12-20T15:31:26;19.92;;;13.18;;
51792;SDS011;37850;53.178;6.376;2022-12-20T15:33:53;20.02;;;13.77;;
51792;SDS011;37850;53.178;6.376;2022-12-20T15:36:23;16.90;;;13.63;;
51792;SDS011;37850;53.178;6.376;2022-12-20T15:38:52;16.77;;;13.77;;
51792;SDS011;37850;53.178;6.376;2022-12-20T15:43:49;21.90;;;14.90;;
51792;SDS011;37850;53.178;6.376;2022-12-20T15:46:36;20.25;;;15.38;;
51792;SDS011;37850;53.178;6.376;2022-12-20T15:49:02;21.35;;;14.88;;
51792;SDS011;37850;53.178;6.376;2022-12-20T15:51:35;18.40;;;14.43;;
51792;SDS011;37850;53.178;6.376;2022-12-20T15:54:06;21.77;;;14.93;;
51792;SDS011;37850;53.178;6.376;2022-12-20T15:56:38;22.00;;;15.40;;
51792;SDS011;37850;53.178;6.376;2022-12-20T15:59:03;21.38;;;15.90;;
51792;SDS011;37850;53.178;6.376;2022-12-20T16:01:33;25.20;;;16.23;;
51792;SDS011;37850;53.178;6.376;2022-12-20T16:04:01;22.90;;;16.33;;
51792;SDS011;37850;53.178;6.376;2022-12-20T16:06:29;22.05;;;16.55;;
51792;SDS011;37850;53.178;6.376;2022-12-20T16:08:55;23.20;;;16.73;;
51792;SDS011;37850;53.178;6.376;2022-12-20T16:11:22;20.45;;;16.00;;
51792;SDS011;37850;53.178;6.376;2022-12-20T16:13:52;23.60;;;16.80;;
51792;SDS011;37850;53.178;6.376;2022-12-20T16:16:20;23.02;;;17.42;;
51792;SDS011;37850;53.178;6.376;2022-12-20T16:18:47;21.00;;;16.35;;
51792;SDS011;37850;53.178;6.376;2022-12-20T16:21:17;23.48;;;16.77;;
51792;SDS011;37850;53.178;6.376;2022-12-20T16:23:45;23.10;;;16.58;;
51792;SDS011;37850;53.178;6.376;2022-12-20T16:26:14;23.45;;;17.58;;
51792;SDS011;37850;53.178;6.376;2022-12-20T16:28:41;23.77;;;17.30;;
51792;SDS011;37850;53.178;6.376;2022-12-20T16:31:09;24.20;;;17.33;;
51792;SDS011;37850;53.178;6.376;2022-12-20T16:33:41;22.98;;;17.08;;
51792;SDS011;37850;53.178;6.376;2022-12-20T16:36:08;24.45;;;17.48;;
51792;SDS011;37850;53.178;6.376;2022-12-20T16:38:36;22.55;;;17.08;;
51792;SDS011;37850;53.178;6.376;2022-12-20T16:41:09;23.33;;;17.20;;
51792;SDS011;37850;53.178;6.376;2022-12-20T16:43:37;23.73;;;18.08;;
51792;SDS011;37850;53.178;6.376;2022-12-20T16:46:03;25.55;;;18.35;;
51792;SDS011;37850;53.178;6.376;2022-12-20T16:48:29;23.27;;;17.25;;
51792;SDS011;37850;53.178;6.376;2022-12-20T16:50:55;24.90;;;18.83;;
51792;SDS011;37850;53.178;6.376;2022-12-20T16:53:22;24.88;;;18.50;;
51792;SDS011;37850;53.178;6.376;2022-12-20T16:55:47;27.02;;;18.38;;
51792;SDS011;37850;53.178;6.376;2022-12-20T16:58:13;30.08;;;18.90;;
51792;SDS011;37850;53.178;6.376;2022-12-20T17:00:39;25.67;;;18.40;;
51792;SDS011;37850;53.178;6.376;2022-12-20T17:03:08;25.13;;;17.55;;
51792;SDS011;37850;53.178;6.376;2022-12-20T17:05:34;24.75;;;18.77;;
51792;SDS011;37850;53.178;6.376;2022-12-20T17:08:01;25.88;;;18.13;;
51792;SDS011;37850;53.178;6.376;2022-12-20T17:10:27;24.05;;;18.15;;
51792;SDS011;37850;53.178;6.376;2022-12-20T17:12:54;26.00;;;18.58;;